Bullfrog, UT

6:48 PM MDT on July 06, 2015 (GMT -0600)
Page Municipal | | Change Station
CLOSE
Current Station
Airport
Location: Page,
Elevation: 4308 ft
Nearby Weather Stations

Elev 4308 ft 36.92 °N, 111.45 °W | Updated 55 minutes ago

Overcast
Overcast
84 °F
Feels Like 84 °F
N
8
Wind Variable Wind from NW

Today
High -- | Low -- °F
--% Chance of Precip.
Yesterday
High -- | Low -- °F
Precip. -- in
6:07 AM 8:47 PM
Waning Gibbous, 70% visible
Pressure 29.87 in
Visibility 10.0 miles
Clouds Mostly Cloudy 11000 ft
Dew Point 47 °F
Humidity 27%
Rainfall 0.00 in
Snow Depth Not available.
UV 2 out of 12
Pollen 4.20 out of 12
Air Quality Not available.
Flu Activity Not available.
METAR KPGA 062353Z AUTO 31007KT 270V340 10SM BKN110 29/08 A3007 RMK AO2 SLP114 60000 T02890083 10311 20272 56012 TSNO

More Conditions Fewer Conditions

Pressure 29.87 in
Visibility 10.0 miles
Clouds Mostly Cloudy 11000 ft
Dew Point 47 °F
Humidity 27%
Rainfall 0.00 in
Snow Depth Not available.
UV 2 out of 12
Pollen 4.20 out of 12
Air Quality Not available.
Flu Activity Not available.
METAR KPGA 062353Z AUTO 31007KT 270V340 10SM BKN110 29/08 A3007 RMK AO2 SLP114 60000 T02890083 10311 20272 56012 TSNO

More Conditions Fewer Conditions

Nowcast | as of 5:38 PM MDT on July 6, 2015

Scattered showers and thunderstorms...some with very heavy rain... continue across central and southern Utah this afternoon. At 530 PM the strongest storms were scattered from near Hatch...south to Bryce Canyon and further south to Paria. The thunderstorms were moving north and will continue into the evening. Expect locally heavy rain...cloud to ground lightning...and gusty winds. Small hail is also possible.

×

10-Day Weather Forecast

×

Almanac

Astronomy

Jul. 06, 2015 Rise Set
Actual Time
Civil Twilight
Nautical Twilight
Astronomical Twilight
Moon
Length of Visible Light
Length of Day
Tomorrow will be .
, % of the Moon is Illuminated

Today's Extremes

State Highs State Lows

Community

WunderPhotos

Upload Photos

1,835,682 photos uploaded!

WunderBlogs® & News

Nearby

Air Quality

  Air Quality AQ Index Pollutant
Not available.

Snow Depth

Station Depth Elevation

Earthquake Activity

City Distance Mag. Time & Date
Minimum magnitude displayed is 2.5.

Coastal Water Temperatures

Place Temperature

Stations

Nearby Weather Stations

Station Location Temp. Windchill Dew Point Humidity Wind Precip. Elev Updated Type